sensor_id;sensor_type;location;lat;lon;timestamp;pressure;altitude;pressure_sealevel;temperature;humidity
50103;BME280;35993;52.604;10.078;2022-09-14T00:02:05;100421.47;;;12.59;100.00
50103;BME280;35993;52.604;10.078;2022-09-14T00:04:31;100419.72;;;12.53;100.00
50103;BME280;35993;52.604;10.078;2022-09-14T00:06:56;100427.41;;;12.44;100.00
50103;BME280;35993;52.604;10.078;2022-09-14T00:09:23;100430.13;;;12.44;100.00
50103;BME280;35993;52.604;10.078;2022-09-14T00:11:49;100410.59;;;12.48;100.00
50103;BME280;35993;52.604;10.078;2022-09-14T00:14:16;100407.03;;;12.47;100.00
50103;BME280;35993;52.604;10.078;2022-09-14T00:16:43;100413.31;;;12.48;100.00
50103;BME280;35993;52.604;10.078;2022-09-14T00:19:21;100418.03;;;12.40;100.00
50103;BME280;35993;52.604;10.078;2022-09-14T00:21:55;100414.38;;;12.35;100.00
50103;BME280;35993;52.604;10.078;2022-09-14T00:24:22;100418.28;;;12.39;100.00
50103;BME280;35993;52.604;10.078;2022-09-14T00:26:48;100412.72;;;12.34;100.00
50103;BME280;35993;52.604;10.078;2022-09-14T00:29:14;100411.41;;;12.24;100.00
50103;BME280;35993;52.604;10.078;2022-09-14T00:31:40;100411.53;;;12.18;100.00
50103;BME280;35993;52.604;10.078;2022-09-14T00:34:08;100407.72;;;12.07;100.00
50103;BME280;35993;52.604;10.078;2022-09-14T00:36:41;100404.91;;;12.13;100.00
50103;BME280;35993;52.604;10.078;2022-09-14T00:39:07;100406.78;;;12.13;100.00
50103;BME280;35993;52.604;10.078;2022-09-14T00:41:36;100411.41;;;12.12;100.00
50103;BME280;35993;52.604;10.078;2022-09-14T00:46:49;100393.91;;;12.20;100.00
50103;BME280;35993;52.604;10.078;2022-09-14T00:54:54;100398.13;;;12.04;100.00
50103;BME280;35993;52.604;10.078;2022-09-14T00:57:21;100399.16;;;11.91;100.00
50103;BME280;35993;52.604;10.078;2022-09-14T00:59:50;100390.53;;;11.94;100.00
50103;BME280;35993;52.604;10.078;2022-09-14T01:02:18;100388.88;;;11.93;100.00
50103;BME280;35993;52.604;10.078;2022-09-14T01:04:45;100385.38;;;12.05;100.00
50103;BME280;35993;52.604;10.078;2022-09-14T01:20:55;100390.69;;;12.00;100.00
50103;BME280;35993;52.604;10.078;2022-09-14T01:28:40;100383.84;;;12.09;100.00
50103;BME280;35993;52.604;10.078;2022-09-14T01:31:12;100382.06;;;12.03;100.00
50103;BME280;35993;52.604;10.078;2022-09-14T01:33:50;100383.19;;;11.95;100.00
50103;BME280;35993;52.604;10.078;2022-09-14T01:36:17;100381.53;;;11.94;100.00
50103;BME280;35993;52.604;10.078;2022-09-14T01:38:47;100383.84;;;11.97;100.00
50103;BME280;35993;52.604;10.078;2022-09-14T01:41:17;100382.97;;;11.96;100.00
50103;BME280;35993;52.604;10.078;2022-09-14T01:43:51;100386.25;;;11.87;100.00
50103;BME280;35993;52.604;10.078;2022-09-14T01:46:23;100386.72;;;11.84;100.00
50103;BME280;35993;52.604;10.078;2022-09-14T01:49:00;100384.84;;;11.84;100.00
50103;BME280;35993;52.604;10.078;2022-09-14T01:51:36;100386.81;;;11.77;100.00
50103;BME280;35993;52.604;10.078;2022-09-14T01:54:29;100392.50;;;11.75;100.00
50103;BME280;35993;52.604;10.078;2022-09-14T01:56:57;100393.06;;;11.66;100.00
50103;BME280;35993;52.604;10.078;2022-09-14T01:59:28;100398.50;;;11.66;100.00
50103;BME280;35993;52.604;10.078;2022-09-14T02:04:38;100381.75;;;11.80;100.00
50103;BME280;35993;52.604;10.078;2022-09-14T02:07:05;100386.59;;;11.78;100.00
50103;BME280;35993;52.604;10.078;2022-09-14T02:09:31;100377.47;;;11.73;100.00
50103;BME280;35993;52.604;10.078;2022-09-14T02:11:57;100377.63;;;11.78;100.00
50103;BME280;35993;52.604;10.078;2022-09-14T02:14:26;100369.22;;;11.79;100.00
50103;BME280;35993;52.604;10.078;2022-09-14T02:16:52;100361.78;;;11.87;100.00
50103;BME280;35993;52.604;10.078;2022-09-14T02:19:18;100351.97;;;11.86;100.00
50103;BME280;35993;52.604;10.078;2022-09-14T02:21:43;100354.19;;;11.77;100.00
50103;BME280;35993;52.604;10.078;2022-09-14T02:24:09;100362.09;;;11.67;100.00
50103;BME280;35993;52.604;10.078;2022-09-14T02:26:36;100363.53;;;11.69;100.00
50103;BME280;35993;52.604;10.078;2022-09-14T02:29:03;100362.22;;;11.60;100.00
50103;BME280;35993;52.604;10.078;2022-09-14T02:31:34;100354.63;;;11.62;100.00
50103;BME280;35993;52.604;10.078;2022-09-14T02:34:27;100359.25;;;11.61;100.00
50103;BME280;35993;52.604;10.078;2022-09-14T02:37:19;100352.25;;;11.54;100.00
50103;BME280;35993;52.604;10.078;2022-09-14T02:40:22;100353.69;;;11.68;100.00
50103;BME280;35993;52.604;10.078;2022-09-14T02:43:07;100354.38;;;11.63;100.00
50103;BME280;35993;52.604;10.078;2022-09-14T02:48:20;100353.63;;;11.44;100.00
50103;BME280;35993;52.604;10.078;2022-09-14T02:51:05;100348.19;;;11.44;100.00
50103;BME280;35993;52.604;10.078;2022-09-14T02:53:43;100344.88;;;11.42;100.00
50103;BME280;35993;52.604;10.078;2022-09-14T02:56:11;100341.56;;;11.40;100.00
50103;BME280;35993;52.604;10.078;2022-09-14T02:58:40;100338.16;;;11.45;100.00
50103;BME280;35993;52.604;10.078;2022-09-14T03:01:07;100347.47;;;11.37;100.00
50103;BME280;35993;52.604;10.078;2022-09-14T03:03:33;100353.56;;;11.21;100.00
50103;BME280;35993;52.604;10.078;2022-09-14T03:05:59;100350.59;;;11.22;100.00
50103;BME280;35993;52.604;10.078;2022-09-14T03:08:26;100344.00;;;11.30;100.00
50103;BME280;35993;52.604;10.078;2022-09-14T03:10:52;100353.03;;;11.42;100.00
50103;BME280;35993;52.604;10.078;2022-09-14T03:13:18;100356.06;;;11.34;100.00
50103;BME280;35993;52.604;10.078;2022-09-14T03:15:44;100352.03;;;11.25;100.00
50103;BME280;35993;52.604;10.078;2022-09-14T03:18:10;100354.16;;;11.23;100.00
50103;BME280;35993;52.604;10.078;2022-09-14T03:20:36;100347.31;;;11.20;100.00
50103;BME280;35993;52.604;10.078;2022-09-14T03:23:03;100338.31;;;11.20;100.00
50103;BME280;35993;52.604;10.078;2022-09-14T03:25:29;100339.97;;;11.21;100.00
50103;BME280;35993;52.604;10.078;2022-09-14T03:27:58;100333.63;;;11.27;100.00
50103;BME280;35993;52.604;10.078;2022-09-14T03:30:25;100329.38;;;11.31;100.00
50103;BME280;35993;52.604;10.078;2022-09-14T03:32:51;100315.00;;;11.42;100.00
50103;BME280;35993;52.604;10.078;2022-09-14T03:35:17;100326.44;;;11.44;100.00
50103;BME280;35993;52.604;10.078;2022-09-14T03:37:44;100328.03;;;11.22;100.00
50103;BME280;35993;52.604;10.078;2022-09-14T03:40:13;100329.22;;;10.95;100.00
50103;BME280;35993;52.604;10.078;2022-09-14T03:42:46;100324.31;;;10.86;100.00
50103;BME280;35993;52.604;10.078;2022-09-14T03:45:13;100326.91;;;10.80;100.00
50103;BME280;35993;52.604;10.078;2022-09-14T03:47:40;100318.69;;;10.87;100.00
50103;BME280;35993;52.604;10.078;2022-09-14T03:50:07;100308.94;;;10.98;100.00
50103;BME280;35993;52.604;10.078;2022-09-14T03:52:34;100309.91;;;11.04;100.00
50103;BME280;35993;52.604;10.078;2022-09-14T03:55:00;100298.19;;;11.03;100.00
50103;BME280;35993;52.604;10.078;2022-09-14T03:57:26;100294.28;;;10.99;100.00
50103;BME280;35993;52.604;10.078;2022-09-14T03:59:51;100295.34;;;10.98;100.00
50103;BME280;35993;52.604;10.078;2022-09-14T04:02:17;100292.50;;;10.93;100.00
50103;BME280;35993;52.604;10.078;2022-09-14T04:04:43;100284.09;;;10.94;100.00
50103;BME280;35993;52.604;10.078;2022-09-14T04:07:09;100289.91;;;10.98;100.00
50103;BME280;35993;52.604;10.078;2022-09-14T04:09:34;100291.19;;;10.95;100.00
50103;BME280;35993;52.604;10.078;2022-09-14T04:12:00;100292.22;;;10.82;100.00
50103;BME280;35993;52.604;10.078;2022-09-14T04:14:25;100291.25;;;10.77;100.00
50103;BME280;35993;52.604;10.078;2022-09-14T04:16:51;100296.16;;;10.68;100.00
50103;BME280;35993;52.604;10.078;2022-09-14T04:19:17;100299.69;;;10.69;100.00
50103;BME280;35993;52.604;10.078;2022-09-14T04:21:42;100311.03;;;10.65;100.00
50103;BME280;35993;52.604;10.078;2022-09-14T04:24:10;100312.00;;;10.53;100.00
50103;BME280;35993;52.604;10.078;2022-09-14T04:26:37;100313.72;;;10.47;100.00
50103;BME280;35993;52.604;10.078;2022-09-14T04:29:03;100316.00;;;10.50;100.00
50103;BME280;35993;52.604;10.078;2022-09-14T04:31:29;100311.59;;;10.68;100.00
50103;BME280;35993;52.604;10.078;2022-09-14T04:33:55;100301.59;;;10.68;100.00
50103;BME280;35993;52.604;10.078;2022-09-14T04:36:22;100301.34;;;10.70;100.00
50103;BME280;35993;52.604;10.078;2022-09-14T04:38:51;100311.41;;;10.69;100.00
50103;BME280;35993;52.604;10.078;2022-09-14T04:41:19;100310.94;;;10.72;100.00
50103;BME280;35993;52.604;10.078;2022-09-14T04:43:47;100315.88;;;10.75;100.00
50103;BME280;35993;52.604;10.078;2022-09-14T04:46:26;100306.03;;;10.81;100.00
50103;BME280;35993;52.604;10.078;2022-09-14T04:48:52;100306.59;;;10.83;100.00
50103;BME280;35993;52.604;10.078;2022-09-14T04:51:24;100315.50;;;10.90;100.00
50103;BME280;35993;52.604;10.078;2022-09-14T04:53:52;100310.91;;;10.91;100.00
50103;BME280;35993;52.604;10.078;2022-09-14T04:56:19;100311.50;;;10.93;100.00
50103;BME280;35993;52.604;10.078;2022-09-14T04:58:48;100301.25;;;10.95;100.00
50103;BME280;35993;52.604;10.078;2022-09-14T05:01:17;100299.34;;;10.95;100.00
50103;BME280;35993;52.604;10.078;2022-09-14T05:03:43;100303.34;;;10.93;100.00
50103;BME280;35993;52.604;10.078;2022-09-14T05:06:10;100308.56;;;10.94;100.00
50103;BME280;35993;52.604;10.078;2022-09-14T05:08:36;100315.66;;;10.95;100.00
50103;BME280;35993;52.604;10.078;2022-09-14T05:11:04;100309.94;;;10.85;100.00
50103;BME280;35993;52.604;10.078;2022-09-14T05:13:31;100308.97;;;10.79;100.00
50103;BME280;35993;52.604;10.078;2022-09-14T05:16:16;100304.59;;;10.78;100.00
50103;BME280;35993;52.604;10.078;2022-09-14T05:18:42;100305.63;;;10.96;100.00
50103;BME280;35993;52.604;10.078;2022-09-14T05:21:10;100309.44;;;11.07;100.00
50103;BME280;35993;52.604;10.078;2022-09-14T05:23:36;100310.38;;;11.12;100.00
50103;BME280;35993;52.604;10.078;2022-09-14T05:26:02;100307.59;;;11.19;100.00
50103;BME280;35993;52.604;10.078;2022-09-14T05:28:30;100309.28;;;11.20;100.00
50103;BME280;35993;52.604;10.078;2022-09-14T05:30:56;100315.66;;;11.26;100.00
50103;BME280;35993;52.604;10.078;2022-09-14T05:33:22;100316.72;;;11.25;100.00
50103;BME280;35993;52.604;10.078;2022-09-14T05:35:48;100314.97;;;11.30;100.00
50103;BME280;35993;52.604;10.078;2022-09-14T05:38:14;100320.53;;;11.36;100.00
50103;BME280;35993;52.604;10.078;2022-09-14T05:40:41;100303.28;;;11.42;100.00
50103;BME280;35993;52.604;10.078;2022-09-14T05:43:06;100306.00;;;11.42;100.00
50103;BME280;35993;52.604;10.078;2022-09-14T05:45:32;100298.44;;;11.44;100.00
50103;BME280;35993;52.604;10.078;2022-09-14T05:48:02;100298.13;;;11.52;100.00
50103;BME280;35993;52.604;10.078;2022-09-14T05:50:31;100302.97;;;11.62;100.00
50103;BME280;35993;52.604;10.078;2022-09-14T05:52:57;100305.00;;;11.67;100.00
50103;BME280;35993;52.604;10.078;2022-09-14T05:55:22;100290.09;;;11.69;100.00
50103;BME280;35993;52.604;10.078;2022-09-14T05:57:49;100298.25;;;11.69;100.00
50103;BME280;35993;52.604;10.078;2022-09-14T06:00:15;100298.13;;;11.64;100.00
50103;BME280;35993;52.604;10.078;2022-09-14T06:02:45;100301.31;;;11.61;100.00
50103;BME280;35993;52.604;10.078;2022-09-14T06:05:11;100302.16;;;11.61;100.00
50103;BME280;35993;52.604;10.078;2022-09-14T06:07:36;100295.31;;;11.71;100.00
50103;BME280;35993;52.604;10.078;2022-09-14T06:10:02;100289.50;;;11.79;100.00
50103;BME280;35993;52.604;10.078;2022-09-14T06:12:28;100279.94;;;11.88;100.00
50103;BME280;35993;52.604;10.078;2022-09-14T06:14:53;100282.94;;;11.99;100.00
50103;BME280;35993;52.604;10.078;2022-09-14T06:17:19;100286.34;;;12.18;100.00
50103;BME280;35993;52.604;10.078;2022-09-14T06:19:45;100281.63;;;12.13;100.00
50103;BME280;35993;52.604;10.078;2022-09-14T06:22:10;100284.69;;;12.17;100.00
50103;BME280;35993;52.604;10.078;2022-09-14T06:24:36;100281.16;;;12.16;100.00
50103;BME280;35993;52.604;10.078;2022-09-14T06:27:01;100283.28;;;12.14;100.00
50103;BME280;35993;52.604;10.078;2022-09-14T06:29:27;100289.88;;;12.18;100.00
50103;BME280;35993;52.604;10.078;2022-09-14T06:31:53;100275.34;;;12.24;100.00
50103;BME280;35993;52.604;10.078;2022-09-14T06:34:18;100269.28;;;12.22;100.00
50103;BME280;35993;52.604;10.078;2022-09-14T06:36:44;100265.88;;;12.27;100.00
50103;BME280;35993;52.604;10.078;2022-09-14T06:39:10;100266.31;;;12.36;100.00
50103;BME280;35993;52.604;10.078;2022-09-14T06:41:36;100268.19;;;12.47;100.00
50103;BME280;35993;52.604;10.078;2022-09-14T06:44:01;100264.75;;;12.52;100.00
50103;BME280;35993;52.604;10.078;2022-09-14T06:46:30;100260.94;;;12.53;100.00
50103;BME280;35993;52.604;10.078;2022-09-14T06:49:04;100266.50;;;12.58;100.00
50103;BME280;35993;52.604;10.078;2022-09-14T06:51:33;100267.72;;;12.50;100.00
50103;BME280;35993;52.604;10.078;2022-09-14T06:54:00;100269.72;;;12.55;100.00
50103;BME280;35993;52.604;10.078;2022-09-14T06:56:27;100272.03;;;12.63;100.00
50103;BME280;35993;52.604;10.078;2022-09-14T06:58:53;100272.41;;;12.67;100.00
50103;BME280;35993;52.604;10.078;2022-09-14T07:01:20;100263.25;;;12.73;100.00
50103;BME280;35993;52.604;10.078;2022-09-14T07:03:46;100265.28;;;12.77;100.00
50103;BME280;35993;52.604;10.078;2022-09-14T07:06:18;100269.63;;;12.78;100.00
50103;BME280;35993;52.604;10.078;2022-09-14T07:08:45;100275.41;;;12.82;100.00
50103;BME280;35993;52.604;10.078;2022-09-14T07:11:12;100276.31;;;13.00;100.00
50103;BME280;35993;52.604;10.078;2022-09-14T07:13:39;100273.94;;;13.03;100.00
50103;BME280;35993;52.604;10.078;2022-09-14T07:16:05;100280.28;;;13.09;100.00
50103;BME280;35993;52.604;10.078;2022-09-14T07:18:31;100275.00;;;13.19;100.00
50103;BME280;35993;52.604;10.078;2022-09-14T07:23:27;100283.97;;;13.32;100.00
50103;BME280;35993;52.604;10.078;2022-09-14T07:26:25;100279.53;;;13.42;100.00
50103;BME280;35993;52.604;10.078;2022-09-14T07:28:54;100273.59;;;13.46;100.00
50103;BME280;35993;52.604;10.078;2022-09-14T07:31:38;100270.53;;;13.59;100.00
50103;BME280;35993;52.604;10.078;2022-09-14T07:34:05;100271.38;;;13.76;100.00
50103;BME280;35993;52.604;10.078;2022-09-14T07:36:33;100268.13;;;13.80;100.00
50103;BME280;35993;52.604;10.078;2022-09-14T07:38:59;100279.88;;;13.80;100.00
50103;BME280;35993;52.604;10.078;2022-09-14T07:41:27;100271.09;;;13.95;100.00
50103;BME280;35993;52.604;10.078;2022-09-14T07:43:57;100276.78;;;14.11;100.00
50103;BME280;35993;52.604;10.078;2022-09-14T07:46:28;100279.72;;;14.26;100.00
50103;BME280;35993;52.604;10.078;2022-09-14T07:48:59;100280.47;;;14.21;100.00
50103;BME280;35993;52.604;10.078;2022-09-14T07:51:26;100281.28;;;14.22;100.00
50103;BME280;35993;52.604;10.078;2022-09-14T07:53:53;100278.94;;;14.31;100.00
50103;BME280;35993;52.604;10.078;2022-09-14T07:56:19;100271.03;;;14.29;100.00
50103;BME280;35993;52.604;10.078;2022-09-14T07:58:46;100274.53;;;14.47;100.00
50103;BME280;35993;52.604;10.078;2022-09-14T08:01:14;100269.47;;;14.55;100.00
50103;BME280;35993;52.604;10.078;2022-09-14T08:03:43;100273.59;;;14.58;100.00
50103;BME280;35993;52.604;10.078;2022-09-14T08:06:14;100268.69;;;14.60;100.00
50103;BME280;35993;52.604;10.078;2022-09-14T08:08:42;100269.50;;;14.61;100.00
50103;BME280;35993;52.604;10.078;2022-09-14T08:13:43;100264.56;;;14.80;100.00
50103;BME280;35993;52.604;10.078;2022-09-14T08:16:09;100263.72;;;14.79;100.00
50103;BME280;35993;52.604;10.078;2022-09-14T08:18:36;100253.13;;;14.83;100.00
50103;BME280;35993;52.604;10.078;2022-09-14T08:21:04;100251.53;;;14.87;100.00
50103;BME280;35993;52.604;10.078;2022-09-14T08:23:30;100264.78;;;15.00;100.00
50103;BME280;35993;52.604;10.078;2022-09-14T08:25:55;100264.59;;;15.07;100.00
50103;BME280;35993;52.604;10.078;2022-09-14T08:28:25;100261.53;;;15.03;100.00
50103;BME280;35993;52.604;10.078;2022-09-14T08:30:51;100262.72;;;15.13;100.00
50103;BME280;35993;52.604;10.078;2022-09-14T08:33:17;100266.03;;;15.15;100.00
50103;BME280;35993;52.604;10.078;2022-09-14T08:35:43;100260.34;;;15.21;100.00
50103;BME280;35993;52.604;10.078;2022-09-14T08:38:09;100251.91;;;15.23;100.00
50103;BME280;35993;52.604;10.078;2022-09-14T08:40:42;100255.75;;;15.27;100.00
50103;BME280;35993;52.604;10.078;2022-09-14T08:43:10;100267.56;;;15.33;100.00
50103;BME280;35993;52.604;10.078;2022-09-14T08:45:40;100251.81;;;15.45;100.00
50103;BME280;35993;52.604;10.078;2022-09-14T08:48:15;100250.56;;;15.63;100.00
50103;BME280;35993;52.604;10.078;2022-09-14T08:50:43;100249.75;;;15.63;100.00
50103;BME280;35993;52.604;10.078;2022-09-14T08:53:08;100239.41;;;15.70;100.00
50103;BME280;35993;52.604;10.078;2022-09-14T09:00:42;100241.16;;;15.81;100.00
50103;BME280;35993;52.604;10.078;2022-09-14T09:11:50;100245.69;;;16.08;100.00
50103;BME280;35993;52.604;10.078;2022-09-14T09:14:40;100244.03;;;16.07;100.00
50103;BME280;35993;52.604;10.078;2022-09-14T09:17:20;100239.03;;;15.88;100.00
50103;BME280;35993;52.604;10.078;2022-09-14T09:22:38;100237.06;;;15.84;100.00
50103;BME280;35993;52.604;10.078;2022-09-14T09:25:14;100234.97;;;15.96;100.00
50103;BME280;35993;52.604;10.078;2022-09-14T09:27:41;100217.44;;;15.97;100.00
50103;BME280;35993;52.604;10.078;2022-09-14T09:30:12;100221.59;;;16.05;100.00
50103;BME280;35993;52.604;10.078;2022-09-14T09:32:38;100213.66;;;16.09;100.00
50103;BME280;35993;52.604;10.078;2022-09-14T09:35:35;100224.44;;;16.26;100.00
50103;BME280;35993;52.604;10.078;2022-09-14T09:38:15;100223.56;;;16.20;100.00
50103;BME280;35993;52.604;10.078;2022-09-14T09:40:52;100213.50;;;16.31;100.00
50103;BME280;35993;52.604;10.078;2022-09-14T09:43:20;100217.34;;;16.35;100.00
50103;BME280;35993;52.604;10.078;2022-09-14T09:46:06;100222.78;;;16.25;100.00
50103;BME280;35993;52.604;10.078;2022-09-14T09:48:39;100226.88;;;16.22;100.00
50103;BME280;35993;52.604;10.078;2022-09-14T09:51:29;100220.34;;;16.33;100.00
50103;BME280;35993;52.604;10.078;2022-09-14T09:54:22;100223.38;;;16.37;100.00
50103;BME280;35993;52.604;10.078;2022-09-14T09:56:54;100216.78;;;16.38;100.00
50103;BME280;35993;52.604;10.078;2022-09-14T10:01:56;100218.47;;;16.49;98.82
50103;BME280;35993;52.604;10.078;2022-09-14T10:05:01;100220.97;;;16.51;98.90
50103;BME280;35993;52.604;10.078;2022-09-14T10:07:29;100207.81;;;16.53;98.20
50103;BME280;35993;52.604;10.078;2022-09-14T10:09:59;100199.59;;;16.48;98.57
50103;BME280;35993;52.604;10.078;2022-09-14T10:12:25;100207.50;;;16.44;98.08
50103;BME280;35993;52.604;10.078;2022-09-14T10:17:29;100205.91;;;16.48;98.17
50103;BME280;35993;52.604;10.078;2022-09-14T10:19:55;100213.84;;;16.55;97.58
50103;BME280;35993;52.604;10.078;2022-09-14T10:25:18;100211.44;;;16.64;95.22
50103;BME280;35993;52.604;10.078;2022-09-14T10:30:41;100204.59;;;16.77;94.88
50103;BME280;35993;52.604;10.078;2022-09-14T10:33:13;100210.91;;;16.82;95.16
50103;BME280;35993;52.604;10.078;2022-09-14T10:35:50;100210.91;;;16.82;94.60
50103;BME280;35993;52.604;10.078;2022-09-14T10:38:44;100199.72;;;16.94;92.45
50103;BME280;35993;52.604;10.078;2022-09-14T10:51:01;100193.97;;;16.91;93.30
50103;BME280;35993;52.604;10.078;2022-09-14T10:56:26;100193.97;;;16.96;91.77
50103;BME280;35993;52.604;10.078;2022-09-14T10:58:58;100194.50;;;16.93;90.91
50103;BME280;35993;52.604;10.078;2022-09-14T11:02:11;100185.19;;;16.99;89.83
50103;BME280;35993;52.604;10.078;2022-09-14T11:04:55;100186.84;;;17.05;90.55
50103;BME280;35993;52.604;10.078;2022-09-14T11:07:36;100185.75;;;17.01;90.94
50103;BME280;35993;52.604;10.078;2022-09-14T11:10:24;100189.31;;;17.01;90.75
50103;BME280;35993;52.604;10.078;2022-09-14T11:21:39;100190.66;;;16.94;89.32
50103;BME280;35993;52.604;10.078;2022-09-14T11:27:10;100180.56;;;17.10;90.18
50103;BME280;35993;52.604;10.078;2022-09-14T11:29:45;100181.38;;;17.26;89.59
50103;BME280;35993;52.604;10.078;2022-09-14T11:32:20;100176.69;;;17.31;88.86
50103;BME280;35993;52.604;10.078;2022-09-14T11:35:12;100173.94;;;17.26;86.60
50103;BME280;35993;52.604;10.078;2022-09-14T11:37:49;100169.56;;;17.30;88.10
50103;BME280;35993;52.604;10.078;2022-09-14T11:40:35;100166.56;;;17.32;87.69
50103;BME280;35993;52.604;10.078;2022-09-14T11:43:32;100166.28;;;17.28;87.72
50103;BME280;35993;52.604;10.078;2022-09-14T11:46:07;100170.09;;;17.27;87.18
50103;BME280;35993;52.604;10.078;2022-09-14T11:48:43;100164.63;;;17.22;87.18
50103;BME280;35993;52.604;10.078;2022-09-14T11:53:42;100172.03;;;17.11;87.55
50103;BME280;35993;52.604;10.078;2022-09-14T11:58:48;100166.81;;;17.04;86.70
50103;BME280;35993;52.604;10.078;2022-09-14T12:01:29;100170.41;;;17.05;87.20
50103;BME280;35993;52.604;10.078;2022-09-14T12:11:52;100176.69;;;17.11;88.10
50103;BME280;35993;52.604;10.078;2022-09-14T12:17:20;100174.78;;;17.11;87.23
50103;BME280;35993;52.604;10.078;2022-09-14T12:19:48;100172.03;;;17.16;87.67
50103;BME280;35993;52.604;10.078;2022-09-14T12:22:19;100170.94;;;17.12;86.44
50103;BME280;35993;52.604;10.078;2022-09-14T12:27:35;100165.47;;;17.17;86.51
50103;BME280;35993;52.604;10.078;2022-09-14T12:30:01;100164.91;;;17.10;84.84
50103;BME280;35993;52.604;10.078;2022-09-14T12:32:47;100169.56;;;17.04;85.90
50103;BME280;35993;52.604;10.078;2022-09-14T12:35:43;100171.47;;;17.09;86.48
50103;BME280;35993;52.604;10.078;2022-09-14T12:56:46;100170.94;;;17.33;84.47
50103;BME280;35993;52.604;10.078;2022-09-14T13:04:55;100157.47;;;17.26;85.09
50103;BME280;35993;52.604;10.078;2022-09-14T13:07:26;100154.72;;;17.31;84.25
50103;BME280;35993;52.604;10.078;2022-09-14T13:09:54;100149.00;;;17.38;83.26
50103;BME280;35993;52.604;10.078;2022-09-14T13:12:43;100152.00;;;17.47;83.29
50103;BME280;35993;52.604;10.078;2022-09-14T13:15:25;100152.25;;;17.35;81.59
50103;BME280;35993;52.604;10.078;2022-09-14T13:20:52;100128.66;;;17.34;82.10
50103;BME280;35993;52.604;10.078;2022-09-14T13:23:20;100127.03;;;17.38;81.73
50103;BME280;35993;52.604;10.078;2022-09-14T13:25:46;100132.78;;;17.36;81.87
50103;BME280;35993;52.604;10.078;2022-09-14T13:28:16;100125.38;;;17.42;83.40
50103;BME280;35993;52.604;10.078;2022-09-14T13:30:54;100131.69;;;17.38;82.57
50103;BME280;35993;52.604;10.078;2022-09-14T13:33:20;100122.63;;;17.42;82.14
50103;BME280;35993;52.604;10.078;2022-09-14T13:35:49;100118.25;;;17.41;81.99
50103;BME280;35993;52.604;10.078;2022-09-14T13:38:17;100118.53;;;17.34;82.33
50103;BME280;35993;52.604;10.078;2022-09-14T13:40:45;100113.06;;;17.24;81.96
50103;BME280;35993;52.604;10.078;2022-09-14T13:43:15;100108.13;;;17.21;82.44
50103;BME280;35993;52.604;10.078;2022-09-14T13:45:41;100107.31;;;17.20;81.72
50103;BME280;35993;52.604;10.078;2022-09-14T13:48:06;100107.31;;;17.20;82.33
50103;BME280;35993;52.604;10.078;2022-09-14T13:50:33;100109.75;;;17.22;82.10
50103;BME280;35993;52.604;10.078;2022-09-14T13:52:59;100109.22;;;17.30;82.53
50103;BME280;35993;52.604;10.078;2022-09-14T13:55:41;100110.84;;;17.31;81.91
50103;BME280;35993;52.604;10.078;2022-09-14T13:58:20;100106.19;;;17.37;82.94
50103;BME280;35993;52.604;10.078;2022-09-14T14:03:46;100096.06;;;17.22;82.55
50103;BME280;35993;52.604;10.078;2022-09-14T14:06:23;100100.19;;;17.09;82.07
50103;BME280;35993;52.604;10.078;2022-09-14T14:09:02;100084.28;;;17.06;81.59
50103;BME280;35993;52.604;10.078;2022-09-14T14:11:37;100081.28;;;17.08;82.02
50103;BME280;35993;52.604;10.078;2022-09-14T14:14:21;100073.31;;;17.06;83.62
50103;BME280;35993;52.604;10.078;2022-09-14T14:19:53;100073.59;;;16.99;82.57
50103;BME280;35993;52.604;10.078;2022-09-14T14:22:28;100072.78;;;16.94;81.46
50103;BME280;35993;52.604;10.078;2022-09-14T14:24:54;100076.59;;;16.87;83.44
50103;BME280;35993;52.604;10.078;2022-09-14T14:27:32;100066.72;;;16.86;83.03
50103;BME280;35993;52.604;10.078;2022-09-14T14:29:59;100069.22;;;16.83;82.80
50103;BME280;35993;52.604;10.078;2022-09-14T14:32:26;100061.50;;;16.75;82.42
50103;BME280;35993;52.604;10.078;2022-09-14T14:34:53;100065.34;;;16.74;82.16
50103;BME280;35993;52.604;10.078;2022-09-14T14:37:19;100063.44;;;16.74;82.60
50103;BME280;35993;52.604;10.078;2022-09-14T14:39:46;100060.72;;;16.74;83.15
50103;BME280;35993;52.604;10.078;2022-09-14T14:42:13;100067.28;;;16.73;82.52
50103;BME280;35993;52.604;10.078;2022-09-14T14:44:39;100058.22;;;16.73;81.48
50103;BME280;35993;52.604;10.078;2022-09-14T14:47:06;100053.00;;;16.71;81.41
50103;BME280;35993;52.604;10.078;2022-09-14T14:49:32;100050.84;;;16.73;81.78
50103;BME280;35993;52.604;10.078;2022-09-14T14:51:57;100052.47;;;16.79;81.91
50103;BME280;35993;52.604;10.078;2022-09-14T14:54:23;100043.41;;;16.79;83.58
50103;BME280;35993;52.604;10.078;2022-09-14T14:56:50;100046.72;;;16.76;84.21
50103;BME280;35993;52.604;10.078;2022-09-14T15:01:44;100036.84;;;16.75;82.51
50103;BME280;35993;52.604;10.078;2022-09-14T15:04:10;100046.72;;;16.70;82.99
50103;BME280;35993;52.604;10.078;2022-09-14T15:06:35;100036.56;;;16.66;83.19
50103;BME280;35993;52.604;10.078;2022-09-14T15:09:01;100040.41;;;16.65;83.65
50103;BME280;35993;52.604;10.078;2022-09-14T15:11:30;100040.69;;;16.63;85.10
50103;BME280;35993;52.604;10.078;2022-09-14T15:13:56;100034.13;;;16.59;84.22